LIMELIBP

Guest
Details From LIME - Bergamo Orio Al Serio
To LIBP - Pescara
Flight Number -
Tags Generated
Created
Modified
Stats Distance 275 nm / 510 km
Max Altitude 0 ft / 0 m
Waypoints 3
Social Downloads 1
Likes 0
Share VATSIM

Download

Looking for another format? Having issues loading an existing format? Contact us
Advertisement - Login to hide

Notes

Generated

Route

LIME PES LIBP

ID Type Via Altitude Latitude Longitude Leg Dist Tot Dist Heading (true) Name
O LIME APT - 0 ft / 0 m 45.67113˚ 9.68904˚ - 0 nm - -
PES VOR - 0 ft / 0 m 42.43611˚ 14.18444˚ 274 nm 274 nm 133° / 137° PESCARA VOR-DME
O LIBP APT - 0 ft / 0 m 42.42261˚ 14.17399˚ 0 nm 275 nm 210° / 210° -

Altitude Profile

Advertisement - Login to hide

Weather


0- 5 10 15 20 25 30 35+ Temperature / ° C

Clouds and Precipitation
Forecast for 2017-12-14 12:00 UTC. Updated an hour ago

Ground ~20,000 ft ~40,000 ft Winds

LIME

Details ICAO LIME (BGY)
Name Bergamo Orio Al Serio
Region Italy
Timezone Europe/Rome (UTC+1.0)
Stats Elevation 779 ft / 237 m (AMSL)
Location 45.672004° 9.706892°
Runways 2
Magnetic Variation 2.603° E

METAR

LIME 140820Z 29003KT 240V360 8000 BKN040 04/02 Q1009 NOSIG

Decode

TAF

TAF LIME 140500Z 1406/1506 VRB05KT 7000 SCT050 TEMPO 1406/1407 0800 BCFG BKN010

Decode

Departure Runways

ID Width Length Bearing (true) Bearing (mag) Surface Threshold Offset Overrun Length
10 148 ft / 45 m 9,897 ft / 3,017 m 104.89° 102.29° Asphalt 312 ft / 95 m 0 ft / 0 m
12 59 ft / 18 m 2,665 ft / 812 m 121.47° 118.87° Asphalt 197 ft / 60 m 0 ft / 0 m
28 148 ft / 45 m 9,897 ft / 3,017 m 284.91° 282.31° Asphalt 712 ft / 217 m 0 ft / 0 m
30 59 ft / 18 m 2,665 ft / 812 m 301.48° 298.88° Asphalt 312 ft / 95 m 0 ft / 0 m

LIBP

Details ICAO LIBP (PSR)
Name PESCARA
Region Italy
Timezone Europe/Rome (UTC+1.0)
Stats Elevation 48 ft / 15 m (AMSL)
Location 42.431257° 14.183030°
Runways 1
Magnetic Variation 3.381° E

METAR

LIBP 140750Z 23019G30KT 9999 SCT100 14/04 Q1012

Decode

TAF

TAF LIBP 140500Z 1406/1506 22018G28KT 9999 SCT020 BECMG 1410/1412 22015KT BECMG 1422/1424 22018G30KT

Decode

Destination Runways

ID Width Length Bearing (true) Bearing (mag) Surface Threshold Offset Overrun Length
04 148 ft / 45 m 7,943 ft / 2,421 m 37.19° 33.81° Asphalt 344 ft / 105 m 0 ft / 0 m
22 148 ft / 45 m 7,943 ft / 2,421 m 217.21° 213.83° Asphalt 617 ft / 188 m 0 ft / 0 m

Approach Navaids

Runway Type Ident Frequency Range Bearing (true) Bearing (mag) Slope Elevation
22 Localiser IPS 110.70 MHz 18 nm / 33 km 217.39° 214.01° - 48 ft / 15 m (AMSL)
22 Glidescope IPS 110.70 MHz 10 nm / 19 km 217.20° 213.82° 3.00° 48 ft / 15 m (AMSL)
22 DME IPS 110.70 MHz 18 nm / 33 km - - - 48 ft / 15 m (AMSL)

Popular Alternatives